sensor_id;sensor_type;location;lat;lon;timestamp;P1;durP1;ratioP1;P2;durP2;ratioP2
1258;SDS011;619;51.472;6.628;2023-04-01T00:02:17;2.17;;;0.80;;
1258;SDS011;619;51.472;6.628;2023-04-01T00:04:45;2.23;;;1.00;;
1258;SDS011;619;51.472;6.628;2023-04-01T00:07:13;4.13;;;1.50;;
1258;SDS011;619;51.472;6.628;2023-04-01T00:09:41;5.93;;;1.70;;
1258;SDS011;619;51.472;6.628;2023-04-01T00:12:09;2.50;;;1.27;;
1258;SDS011;619;51.472;6.628;2023-04-01T00:14:34;1.70;;;1.03;;
1258;SDS011;619;51.472;6.628;2023-04-01T00:17:02;3.10;;;1.30;;
1258;SDS011;619;51.472;6.628;2023-04-01T00:19:28;3.30;;;1.00;;
1258;SDS011;619;51.472;6.628;2023-04-01T00:21:53;3.13;;;1.20;;
1258;SDS011;619;51.472;6.628;2023-04-01T00:24:19;3.23;;;0.93;;
1258;SDS011;619;51.472;6.628;2023-04-01T00:26:44;2.30;;;1.40;;
1258;SDS011;619;51.472;6.628;2023-04-01T00:29:13;3.10;;;1.10;;
1258;SDS011;619;51.472;6.628;2023-04-01T00:31:39;2.77;;;1.07;;
1258;SDS011;619;51.472;6.628;2023-04-01T00:34:09;5.20;;;1.43;;
1258;SDS011;619;51.472;6.628;2023-04-01T00:36:35;4.37;;;1.67;;
1258;SDS011;619;51.472;6.628;2023-04-01T00:39:05;2.30;;;1.57;;
1258;SDS011;619;51.472;6.628;2023-04-01T00:41:31;3.13;;;1.33;;
1258;SDS011;619;51.472;6.628;2023-04-01T00:46:45;4.20;;;0.87;;
1258;SDS011;619;51.472;6.628;2023-04-01T00:49:14;2.50;;;1.10;;
1258;SDS011;619;51.472;6.628;2023-04-01T00:51:44;2.13;;;0.90;;
1258;SDS011;619;51.472;6.628;2023-04-01T00:54:15;1.57;;;0.70;;
1258;SDS011;619;51.472;6.628;2023-04-01T00:56:48;1.20;;;0.60;;
1258;SDS011;619;51.472;6.628;2023-04-01T00:59:21;1.50;;;0.97;;
1258;SDS011;619;51.472;6.628;2023-04-01T01:01:53;2.20;;;1.00;;
1258;SDS011;619;51.472;6.628;2023-04-01T01:04:22;2.37;;;1.20;;
1258;SDS011;619;51.472;6.628;2023-04-01T01:10:03;3.63;;;1.17;;
1258;SDS011;619;51.472;6.628;2023-04-01T01:12:55;3.37;;;1.43;;
1258;SDS011;619;51.472;6.628;2023-04-01T01:24:22;2.43;;;0.80;;
1258;SDS011;619;51.472;6.628;2023-04-01T01:27:16;1.20;;;0.70;;
1258;SDS011;619;51.472;6.628;2023-04-01T01:35:31;2.03;;;1.27;;
1258;SDS011;619;51.472;6.628;2023-04-01T01:37:59;2.17;;;0.90;;
1258;SDS011;619;51.472;6.628;2023-04-01T01:40:28;1.77;;;0.97;;
1258;SDS011;619;51.472;6.628;2023-04-01T01:43:00;1.93;;;1.03;;
1258;SDS011;619;51.472;6.628;2023-04-01T01:45:30;1.20;;;0.83;;
1258;SDS011;619;51.472;6.628;2023-04-01T01:47:59;2.77;;;1.10;;
1258;SDS011;619;51.472;6.628;2023-04-01T01:50:27;1.60;;;1.00;;
1258;SDS011;619;51.472;6.628;2023-04-01T01:53:04;2.47;;;1.30;;
1258;SDS011;619;51.472;6.628;2023-04-01T01:55:38;1.30;;;0.60;;
1258;SDS011;619;51.472;6.628;2023-04-01T01:58:15;3.00;;;0.80;;
1258;SDS011;619;51.472;6.628;2023-04-01T02:00:50;1.60;;;0.80;;
1258;SDS011;619;51.472;6.628;2023-04-01T02:03:31;1.70;;;0.90;;
1258;SDS011;619;51.472;6.628;2023-04-01T02:06:01;2.33;;;1.60;;
1258;SDS011;619;51.472;6.628;2023-04-01T02:11:04;0.97;;;0.63;;
1258;SDS011;619;51.472;6.628;2023-04-01T02:13:37;2.17;;;0.87;;
1258;SDS011;619;51.472;6.628;2023-04-01T02:16:07;1.53;;;0.80;;
1258;SDS011;619;51.472;6.628;2023-04-01T02:18:40;0.90;;;0.60;;
1258;SDS011;619;51.472;6.628;2023-04-01T02:21:13;1.60;;;0.90;;
1258;SDS011;619;51.472;6.628;2023-04-01T02:23:39;4.00;;;0.90;;
1258;SDS011;619;51.472;6.628;2023-04-01T02:26:06;0.90;;;0.70;;
1258;SDS011;619;51.472;6.628;2023-04-01T02:28:38;2.20;;;0.93;;
1258;SDS011;619;51.472;6.628;2023-04-01T02:31:06;1.30;;;0.70;;
1258;SDS011;619;51.472;6.628;2023-04-01T02:33:39;4.20;;;0.70;;
1258;SDS011;619;51.472;6.628;2023-04-01T02:36:12;2.17;;;0.77;;
1258;SDS011;619;51.472;6.628;2023-04-01T02:38:44;2.27;;;0.70;;
1258;SDS011;619;51.472;6.628;2023-04-01T02:41:13;2.00;;;0.80;;
1258;SDS011;619;51.472;6.628;2023-04-01T02:43:39;2.23;;;0.80;;
1258;SDS011;619;51.472;6.628;2023-04-01T02:46:07;1.63;;;0.80;;
1258;SDS011;619;51.472;6.628;2023-04-01T02:48:38;1.10;;;0.60;;
1258;SDS011;619;51.472;6.628;2023-04-01T02:51:04;1.30;;;0.90;;
1258;SDS011;619;51.472;6.628;2023-04-01T02:53:33;1.10;;;0.70;;
1258;SDS011;619;51.472;6.628;2023-04-01T02:56:03;1.20;;;0.80;;
1258;SDS011;619;51.472;6.628;2023-04-01T02:58:31;2.60;;;1.00;;
1258;SDS011;619;51.472;6.628;2023-04-01T03:00:58;2.30;;;1.00;;
1258;SDS011;619;51.472;6.628;2023-04-01T03:03:29;1.27;;;0.90;;
1258;SDS011;619;51.472;6.628;2023-04-01T03:05:54;5.10;;;1.20;;
1258;SDS011;619;51.472;6.628;2023-04-01T03:08:21;1.83;;;1.03;;
1258;SDS011;619;51.472;6.628;2023-04-01T03:10:47;2.70;;;1.00;;
1258;SDS011;619;51.472;6.628;2023-04-01T03:13:17;1.47;;;1.03;;
1258;SDS011;619;51.472;6.628;2023-04-01T03:15:43;2.07;;;1.20;;
1258;SDS011;619;51.472;6.628;2023-04-01T03:18:11;4.57;;;1.50;;
1258;SDS011;619;51.472;6.628;2023-04-01T03:20:36;1.40;;;1.20;;
1258;SDS011;619;51.472;6.628;2023-04-01T03:23:04;1.37;;;1.00;;
1258;SDS011;619;51.472;6.628;2023-04-01T03:25:32;2.07;;;1.23;;
1258;SDS011;619;51.472;6.628;2023-04-01T03:27:58;1.30;;;1.20;;
1258;SDS011;619;51.472;6.628;2023-04-01T03:30:29;3.53;;;1.53;;
1258;SDS011;619;51.472;6.628;2023-04-01T03:33:00;2.23;;;1.73;;
1258;SDS011;619;51.472;6.628;2023-04-01T03:35:29;1.60;;;1.50;;
1258;SDS011;619;51.472;6.628;2023-04-01T03:37:56;2.60;;;1.70;;
1258;SDS011;619;51.472;6.628;2023-04-01T03:40:27;2.17;;;1.33;;
1258;SDS011;619;51.472;6.628;2023-04-01T03:42:55;1.53;;;1.20;;
1258;SDS011;619;51.472;6.628;2023-04-01T03:45:21;2.57;;;1.30;;
1258;SDS011;619;51.472;6.628;2023-04-01T03:47:46;3.70;;;1.20;;
1258;SDS011;619;51.472;6.628;2023-04-01T03:50:12;2.93;;;1.60;;
1258;SDS011;619;51.472;6.628;2023-04-01T03:52:37;1.80;;;1.40;;
1258;SDS011;619;51.472;6.628;2023-04-01T03:55:07;1.90;;;1.63;;
1258;SDS011;619;51.472;6.628;2023-04-01T03:57:32;2.37;;;1.60;;
1258;SDS011;619;51.472;6.628;2023-04-01T04:00:00;2.00;;;1.30;;
1258;SDS011;619;51.472;6.628;2023-04-01T04:02:29;2.87;;;1.40;;
1258;SDS011;619;51.472;6.628;2023-04-01T04:04:59;2.10;;;1.50;;
1258;SDS011;619;51.472;6.628;2023-04-01T04:07:27;2.87;;;1.90;;
1258;SDS011;619;51.472;6.628;2023-04-01T04:09:55;4.43;;;1.83;;
1258;SDS011;619;51.472;6.628;2023-04-01T04:12:23;1.60;;;1.50;;
1258;SDS011;619;51.472;6.628;2023-04-01T04:14:48;2.40;;;1.77;;
1258;SDS011;619;51.472;6.628;2023-04-01T04:17:18;2.00;;;1.60;;
1258;SDS011;619;51.472;6.628;2023-04-01T04:19:46;2.73;;;2.10;;
1258;SDS011;619;51.472;6.628;2023-04-01T04:22:12;2.10;;;1.67;;
1258;SDS011;619;51.472;6.628;2023-04-01T04:24:40;3.10;;;1.60;;
1258;SDS011;619;51.472;6.628;2023-04-01T04:27:05;2.20;;;2.00;;
1258;SDS011;619;51.472;6.628;2023-04-01T04:29:33;2.07;;;1.87;;
1258;SDS011;619;51.472;6.628;2023-04-01T04:32:03;2.37;;;1.80;;
1258;SDS011;619;51.472;6.628;2023-04-01T04:34:31;2.87;;;2.00;;
1258;SDS011;619;51.472;6.628;2023-04-01T04:36:57;1.73;;;1.63;;
1258;SDS011;619;51.472;6.628;2023-04-01T04:39:23;2.13;;;1.60;;
1258;SDS011;619;51.472;6.628;2023-04-01T04:41:53;3.30;;;1.60;;
1258;SDS011;619;51.472;6.628;2023-04-01T04:44:21;1.70;;;1.60;;
1258;SDS011;619;51.472;6.628;2023-04-01T04:46:51;2.27;;;1.63;;
1258;SDS011;619;51.472;6.628;2023-04-01T04:49:20;2.73;;;1.60;;
1258;SDS011;619;51.472;6.628;2023-04-01T04:51:45;2.40;;;1.30;;
1258;SDS011;619;51.472;6.628;2023-04-01T04:54:11;1.70;;;1.50;;
1258;SDS011;619;51.472;6.628;2023-04-01T04:56:39;1.70;;;1.40;;
1258;SDS011;619;51.472;6.628;2023-04-01T04:59:07;1.50;;;1.40;;
1258;SDS011;619;51.472;6.628;2023-04-01T05:01:36;2.30;;;2.10;;
1258;SDS011;619;51.472;6.628;2023-04-01T05:04:06;4.33;;;2.30;;
1258;SDS011;619;51.472;6.628;2023-04-01T05:06:34;2.30;;;1.83;;
1258;SDS011;619;51.472;6.628;2023-04-01T05:08:59;1.97;;;1.77;;
1258;SDS011;619;51.472;6.628;2023-04-01T05:11:27;5.33;;;1.60;;
1258;SDS011;619;51.472;6.628;2023-04-01T05:13:53;2.80;;;1.83;;
1258;SDS011;619;51.472;6.628;2023-04-01T05:16:21;1.83;;;1.50;;
1258;SDS011;619;51.472;6.628;2023-04-01T05:18:49;2.23;;;1.80;;
1258;SDS011;619;51.472;6.628;2023-04-01T05:21:17;2.13;;;1.93;;
1258;SDS011;619;51.472;6.628;2023-04-01T05:23:45;1.83;;;1.70;;
1258;SDS011;619;51.472;6.628;2023-04-01T05:26:11;1.87;;;1.70;;
1258;SDS011;619;51.472;6.628;2023-04-01T05:28:43;1.50;;;1.40;;
1258;SDS011;619;51.472;6.628;2023-04-01T05:31:11;1.90;;;1.60;;
1258;SDS011;619;51.472;6.628;2023-04-01T05:33:41;2.30;;;2.10;;
1258;SDS011;619;51.472;6.628;2023-04-01T05:36:10;2.40;;;2.20;;
1258;SDS011;619;51.472;6.628;2023-04-01T05:38:40;2.67;;;2.47;;
1258;SDS011;619;51.472;6.628;2023-04-01T05:41:07;2.30;;;2.10;;
1258;SDS011;619;51.472;6.628;2023-04-01T05:43:35;2.50;;;2.30;;
1258;SDS011;619;51.472;6.628;2023-04-01T05:46:01;3.03;;;2.33;;
1258;SDS011;619;51.472;6.628;2023-04-01T05:48:29;3.10;;;2.90;;
1258;SDS011;619;51.472;6.628;2023-04-01T05:50:55;3.07;;;2.57;;
1258;SDS011;619;51.472;6.628;2023-04-01T05:53:21;3.43;;;3.13;;
1258;SDS011;619;51.472;6.628;2023-04-01T05:55:49;3.40;;;2.87;;
1258;SDS011;619;51.472;6.628;2023-04-01T05:58:19;2.37;;;2.17;;
1258;SDS011;619;51.472;6.628;2023-04-01T06:00:47;2.80;;;2.60;;
1258;SDS011;619;51.472;6.628;2023-04-01T06:03:15;2.43;;;2.23;;
1258;SDS011;619;51.472;6.628;2023-04-01T06:05:42;3.33;;;3.03;;
1258;SDS011;619;51.472;6.628;2023-04-01T06:08:15;2.90;;;2.70;;
1258;SDS011;619;51.472;6.628;2023-04-01T06:19:24;2.73;;;2.53;;
1258;SDS011;619;51.472;6.628;2023-04-01T06:29:55;3.17;;;2.87;;
1258;SDS011;619;51.472;6.628;2023-04-01T06:38:14;3.20;;;3.00;;
1258;SDS011;619;51.472;6.628;2023-04-01T06:40:59;3.20;;;3.00;;
1258;SDS011;619;51.472;6.628;2023-04-01T06:46:45;3.10;;;2.90;;
1258;SDS011;619;51.472;6.628;2023-04-01T06:52:01;3.30;;;3.10;;
1258;SDS011;619;51.472;6.628;2023-04-01T06:54:42;3.20;;;2.83;;
1258;SDS011;619;51.472;6.628;2023-04-01T06:57:37;3.33;;;3.07;;
1258;SDS011;619;51.472;6.628;2023-04-01T07:00:13;3.90;;;3.60;;
1258;SDS011;619;51.472;6.628;2023-04-01T07:02:50;3.40;;;3.10;;
1258;SDS011;619;51.472;6.628;2023-04-01T07:05:41;3.40;;;3.10;;
1258;SDS011;619;51.472;6.628;2023-04-01T07:08:13;3.57;;;3.27;;
1258;SDS011;619;51.472;6.628;2023-04-01T07:18:48;4.00;;;3.70;;
1258;SDS011;619;51.472;6.628;2023-04-01T07:21:35;3.23;;;3.03;;
1258;SDS011;619;51.472;6.628;2023-04-01T07:24:11;3.37;;;3.17;;
1258;SDS011;619;51.472;6.628;2023-04-01T07:26:42;2.90;;;2.70;;
1258;SDS011;619;51.472;6.628;2023-04-01T07:29:11;3.10;;;2.90;;
1258;SDS011;619;51.472;6.628;2023-04-01T07:32:00;2.73;;;2.53;;
1258;SDS011;619;51.472;6.628;2023-04-01T07:48:48;2.63;;;2.43;;
1258;SDS011;619;51.472;6.628;2023-04-01T07:51:19;3.00;;;2.70;;
1258;SDS011;619;51.472;6.628;2023-04-01T07:53:51;4.30;;;3.90;;
1258;SDS011;619;51.472;6.628;2023-04-01T07:59:31;4.77;;;4.27;;
1258;SDS011;619;51.472;6.628;2023-04-01T08:02:10;5.07;;;4.67;;
1258;SDS011;619;51.472;6.628;2023-04-01T08:10:55;3.43;;;3.13;;
1258;SDS011;619;51.472;6.628;2023-04-01T08:13:34;3.17;;;2.87;;
1258;SDS011;619;51.472;6.628;2023-04-01T08:22:01;3.70;;;3.40;;
1258;SDS011;619;51.472;6.628;2023-04-01T08:24:33;3.63;;;3.33;;
1258;SDS011;619;51.472;6.628;2023-04-01T08:27:26;2.87;;;2.67;;
1258;SDS011;619;51.472;6.628;2023-04-01T08:30:03;4.77;;;3.53;;
1258;SDS011;619;51.472;6.628;2023-04-01T08:33:34;3.60;;;3.30;;
1258;SDS011;619;51.472;6.628;2023-04-01T08:35:51;3.90;;;3.50;;
1258;SDS011;619;51.472;6.628;2023-04-01T08:41:06;3.20;;;2.90;;
1258;SDS011;619;51.472;6.628;2023-04-01T08:49:26;3.60;;;3.30;;
1258;SDS011;619;51.472;6.628;2023-04-01T09:14:20;5.97;;;5.37;;
1258;SDS011;619;51.472;6.628;2023-04-01T09:31:49;5.33;;;4.83;;
1258;SDS011;619;51.472;6.628;2023-04-01T09:37:18;5.77;;;5.27;;
1258;SDS011;619;51.472;6.628;2023-04-01T09:40:09;6.43;;;5.83;;
1258;SDS011;619;51.472;6.628;2023-04-01T09:42:45;7.10;;;6.40;;
1258;SDS011;619;51.472;6.628;2023-04-01T09:50:52;7.00;;;6.40;;
1258;SDS011;619;51.472;6.628;2023-04-01T09:53:46;6.30;;;5.70;;
1258;SDS011;619;51.472;6.628;2023-04-01T10:12:45;10.50;;;6.00;;
1258;SDS011;619;51.472;6.628;2023-04-01T10:27:10;6.00;;;5.50;;
1258;SDS011;619;51.472;6.628;2023-04-01T10:35:14;7.87;;;7.00;;
1258;SDS011;619;51.472;6.628;2023-04-01T10:43:38;7.00;;;6.40;;
1258;SDS011;619;51.472;6.628;2023-04-01T10:49:04;7.00;;;6.30;;
1258;SDS011;619;51.472;6.628;2023-04-01T10:57:20;7.80;;;7.07;;
1258;SDS011;619;51.472;6.628;2023-04-01T11:08:32;6.60;;;6.10;;
1258;SDS011;619;51.472;6.628;2023-04-01T11:11:32;7.90;;;6.77;;
1258;SDS011;619;51.472;6.628;2023-04-01T11:14:09;7.50;;;6.73;;
1258;SDS011;619;51.472;6.628;2023-04-01T11:25:20;6.37;;;5.77;;
1258;SDS011;619;51.472;6.628;2023-04-01T11:30:40;7.27;;;6.57;;
1258;SDS011;619;51.472;6.628;2023-04-01T11:33:23;6.70;;;6.20;;
1258;SDS011;619;51.472;6.628;2023-04-01T11:36:19;7.60;;;6.90;;
1258;SDS011;619;51.472;6.628;2023-04-01T11:41:37;6.83;;;6.13;;
1258;SDS011;619;51.472;6.628;2023-04-01T11:44:26;6.73;;;6.20;;
1258;SDS011;619;51.472;6.628;2023-04-01T11:50:01;7.20;;;6.50;;
1258;SDS011;619;51.472;6.628;2023-04-01T11:53:05;7.73;;;7.00;;
1258;SDS011;619;51.472;6.628;2023-04-01T11:55:53;8.17;;;7.03;;
1258;SDS011;619;51.472;6.628;2023-04-01T12:01:25;7.77;;;6.60;;
1258;SDS011;619;51.472;6.628;2023-04-01T12:07:40;6.57;;;6.07;;
1258;SDS011;619;51.472;6.628;2023-04-01T12:10:20;6.13;;;5.63;;
1258;SDS011;619;51.472;6.628;2023-04-01T12:12:54;6.23;;;5.67;;
1258;SDS011;619;51.472;6.628;2023-04-01T12:15:30;6.43;;;5.83;;
1258;SDS011;619;51.472;6.628;2023-04-01T12:24:10;5.70;;;5.00;;
1258;SDS011;619;51.472;6.628;2023-04-01T12:32:53;6.10;;;5.60;;
1258;SDS011;619;51.472;6.628;2023-04-01T12:59:57;6.40;;;5.80;;
1258;SDS011;619;51.472;6.628;2023-04-01T13:02:50;7.90;;;7.20;;
1258;SDS011;619;51.472;6.628;2023-04-01T13:13:45;7.07;;;6.30;;
1258;SDS011;619;51.472;6.628;2023-04-01T13:16:35;6.70;;;6.00;;
1258;SDS011;619;51.472;6.628;2023-04-01T13:41:05;7.00;;;6.40;;
1258;SDS011;619;51.472;6.628;2023-04-01T13:43:58;5.83;;;5.13;;
1258;SDS011;619;51.472;6.628;2023-04-01T14:02:58;6.40;;;5.90;;
1258;SDS011;619;51.472;6.628;2023-04-01T14:05:35;7.80;;;5.90;;
1258;SDS011;619;51.472;6.628;2023-04-01T14:27:21;6.60;;;6.00;;
1258;SDS011;619;51.472;6.628;2023-04-01T14:49:13;5.27;;;4.80;;
1258;SDS011;619;51.472;6.628;2023-04-01T14:51:50;6.97;;;6.37;;
1258;SDS011;619;51.472;6.628;2023-04-01T14:54:21;6.27;;;5.70;;
1258;SDS011;619;51.472;6.628;2023-04-01T14:57:14;5.70;;;5.30;;
1258;SDS011;619;51.472;6.628;2023-04-01T14:59:51;6.53;;;6.00;;
1258;SDS011;619;51.472;6.628;2023-04-01T15:10:35;9.13;;;8.33;;
1258;SDS011;619;51.472;6.628;2023-04-01T15:18:48;7.90;;;7.17;;
1258;SDS011;619;51.472;6.628;2023-04-01T15:26:54;5.17;;;4.70;;
1258;SDS011;619;51.472;6.628;2023-04-01T15:29:33;5.40;;;4.90;;
1258;SDS011;619;51.472;6.628;2023-04-01T15:37:34;5.40;;;5.00;;
1258;SDS011;619;51.472;6.628;2023-04-01T15:40:24;5.13;;;4.67;;
1258;SDS011;619;51.472;6.628;2023-04-01T15:43:05;5.40;;;4.90;;
1258;SDS011;619;51.472;6.628;2023-04-01T15:51:39;5.10;;;4.70;;
1258;SDS011;619;51.472;6.628;2023-04-01T15:57:25;5.17;;;4.67;;
1258;SDS011;619;51.472;6.628;2023-04-01T16:06:14;4.40;;;4.10;;
1258;SDS011;619;51.472;6.628;2023-04-01T16:28:18;5.50;;;5.00;;
1258;SDS011;619;51.472;6.628;2023-04-01T16:33:58;5.30;;;4.90;;
1258;SDS011;619;51.472;6.628;2023-04-01T16:41:49;5.60;;;5.00;;
1258;SDS011;619;51.472;6.628;2023-04-01T16:44:55;5.90;;;5.40;;
1258;SDS011;619;51.472;6.628;2023-04-01T16:47:29;5.63;;;5.13;;
1258;SDS011;619;51.472;6.628;2023-04-01T16:53:01;6.23;;;5.63;;
1258;SDS011;619;51.472;6.628;2023-04-01T16:55:49;6.17;;;5.60;;
1258;SDS011;619;51.472;6.628;2023-04-01T16:58:18;6.60;;;6.00;;
1258;SDS011;619;51.472;6.628;2023-04-01T17:00:58;6.23;;;5.63;;
1258;SDS011;619;51.472;6.628;2023-04-01T17:03:46;5.47;;;5.07;;
1258;SDS011;619;51.472;6.628;2023-04-01T17:22:48;8.30;;;6.10;;
1258;SDS011;619;51.472;6.628;2023-04-01T17:25:47;7.13;;;6.53;;
1258;SDS011;619;51.472;6.628;2023-04-01T17:36:33;6.93;;;6.33;;
1258;SDS011;619;51.472;6.628;2023-04-01T17:55:53;7.70;;;7.10;;
1258;SDS011;619;51.472;6.628;2023-04-01T18:01:23;9.27;;;8.47;;
1258;SDS011;619;51.472;6.628;2023-04-01T18:15:44;9.23;;;8.53;;
1258;SDS011;619;51.472;6.628;2023-04-01T18:20:47;9.13;;;8.37;;
1258;SDS011;619;51.472;6.628;2023-04-01T18:23:30;9.47;;;8.60;;
1258;SDS011;619;51.472;6.628;2023-04-01T18:26:12;9.70;;;8.80;;
1258;SDS011;619;51.472;6.628;2023-04-01T18:31:37;9.97;;;8.97;;
1258;SDS011;619;51.472;6.628;2023-04-01T18:34:13;10.30;;;9.50;;
1258;SDS011;619;51.472;6.628;2023-04-01T18:39:35;9.33;;;8.57;;
1258;SDS011;619;51.472;6.628;2023-04-01T18:45:09;10.63;;;9.73;;
1258;SDS011;619;51.472;6.628;2023-04-01T18:47:57;10.30;;;9.40;;
1258;SDS011;619;51.472;6.628;2023-04-01T18:55:46;7.27;;;6.23;;
1258;SDS011;619;51.472;6.628;2023-04-01T19:06:41;3.00;;;2.80;;
1258;SDS011;619;51.472;6.628;2023-04-01T19:09:20;3.10;;;2.90;;
1258;SDS011;619;51.472;6.628;2023-04-01T19:20:53;3.27;;;1.90;;
1258;SDS011;619;51.472;6.628;2023-04-01T19:37:37;2.47;;;2.27;;
1258;SDS011;619;51.472;6.628;2023-04-01T19:45:51;1.83;;;1.73;;
1258;SDS011;619;51.472;6.628;2023-04-01T20:06:14;2.13;;;1.93;;
1258;SDS011;619;51.472;6.628;2023-04-01T20:17:02;1.87;;;1.77;;
1258;SDS011;619;51.472;6.628;2023-04-01T20:25:17;2.43;;;2.23;;
1258;SDS011;619;51.472;6.628;2023-04-01T20:28:13;2.30;;;2.10;;
1258;SDS011;619;51.472;6.628;2023-04-01T20:36:00;2.30;;;2.10;;
1258;SDS011;619;51.472;6.628;2023-04-01T20:38:52;2.50;;;2.30;;
1258;SDS011;619;51.472;6.628;2023-04-01T20:52:24;2.33;;;2.13;;
1258;SDS011;619;51.472;6.628;2023-04-01T21:00:11;2.00;;;1.83;;
1258;SDS011;619;51.472;6.628;2023-04-01T21:03:11;2.10;;;1.90;;
1258;SDS011;619;51.472;6.628;2023-04-01T21:16:39;2.13;;;2.00;;
1258;SDS011;619;51.472;6.628;2023-04-01T21:22:10;2.33;;;2.00;;
1258;SDS011;619;51.472;6.628;2023-04-01T21:52:21;2.47;;;2.27;;
1258;SDS011;619;51.472;6.628;2023-04-01T21:55:06;1.80;;;1.70;;
1258;SDS011;619;51.472;6.628;2023-04-01T22:00:39;2.67;;;2.47;;
1258;SDS011;619;51.472;6.628;2023-04-01T22:03:14;2.37;;;2.00;;
1258;SDS011;619;51.472;6.628;2023-04-01T22:09:31;2.87;;;2.57;;
1258;SDS011;619;51.472;6.628;2023-04-01T22:12:37;2.20;;;2.00;;
1258;SDS011;619;51.472;6.628;2023-04-01T22:15:15;2.73;;;2.53;;
1258;SDS011;619;51.472;6.628;2023-04-01T22:20:36;2.47;;;2.27;;
1258;SDS011;619;51.472;6.628;2023-04-01T22:23:12;2.27;;;2.07;;
1258;SDS011;619;51.472;6.628;2023-04-01T22:28:38;3.90;;;2.80;;
1258;SDS011;619;51.472;6.628;2023-04-01T22:31:16;3.20;;;2.70;;
1258;SDS011;619;51.472;6.628;2023-04-01T22:42:11;3.07;;;2.77;;
1258;SDS011;619;51.472;6.628;2023-04-01T22:48:17;3.53;;;2.97;;
1258;SDS011;619;51.472;6.628;2023-04-01T22:56:26;2.77;;;2.57;;
1258;SDS011;619;51.472;6.628;2023-04-01T22:59:08;3.83;;;3.43;;
1258;SDS011;619;51.472;6.628;2023-04-01T23:02:03;3.80;;;2.87;;
1258;SDS011;619;51.472;6.628;2023-04-01T23:04:37;2.60;;;2.40;;
1258;SDS011;619;51.472;6.628;2023-04-01T23:10:15;2.60;;;2.40;;
1258;SDS011;619;51.472;6.628;2023-04-01T23:12:58;2.87;;;2.67;;
1258;SDS011;619;51.472;6.628;2023-04-01T23:15:27;1.83;;;1.63;;
1258;SDS011;619;51.472;6.628;2023-04-01T23:26:07;2.80;;;2.60;;
1258;SDS011;619;51.472;6.628;2023-04-01T23:28:49;2.33;;;2.13;;
1258;SDS011;619;51.472;6.628;2023-04-01T23:33:55;2.70;;;2.50;;
1258;SDS011;619;51.472;6.628;2023-04-01T23:36:23;2.10;;;1.90;;
1258;SDS011;619;51.472;6.628;2023-04-01T23:38:49;2.30;;;2.10;;
1258;SDS011;619;51.472;6.628;2023-04-01T23:41:20;2.23;;;2.03;;
1258;SDS011;619;51.472;6.628;2023-04-01T23:44:09;2.60;;;2.40;;
1258;SDS011;619;51.472;6.628;2023-04-01T23:46:37;3.50;;;3.20;;
1258;SDS011;619;51.472;6.628;2023-04-01T23:49:09;3.37;;;3.07;;
1258;SDS011;619;51.472;6.628;2023-04-01T23:51:48;1.90;;;1.80;;
1258;SDS011;619;51.472;6.628;2023-04-01T23:56:57;2.90;;;2.60;;
1258;SDS011;619;51.472;6.628;2023-04-01T23:59:24;3.30;;;2.37;;
